Time;durP1;ratioP1;P1;durP2;ratioP2;P2;SDS_P1;SDS_P2;PMS_P1;PMS_P2;Temp;Humidity;BMP_temperature;BMP_pressure;BME280_temperature;BME280_humidity;BME280_pressure;Samples;Min_cycle;Max_cycle;Signal;HPM_P1;HPM_P2
2019/12/22 09:09:26;;;;;;;2.6;1.7;;;;;;;4.62;100;92714.83;;;;
2019/12/22 09:20:07;;;;;;;3;2;;;;;;;4.69;100;92715.39;;;;
2019/12/22 09:21:08;;;;;;;3;2;;;;;;;4.69;100;92715.39;;;;
2019/12/22 09:22:10;;;;;;;3;2;;;;;;;4.69;100;92715.39;;;;
2019/12/22 09:23:12;;;;;;;3;2;;;;;;;4.69;100;92715.39;;;;
2019/12/22 09:24:13;;;;;;;3;2;;;;;;;4.69;100;92715.39;;;;
2019/12/22 09:25:14;;;;;;;3;2;;;;;;;4.69;100;92715.39;;;;
2019/12/22 09:26:15;;;;;;;3;2;;;;;;;4.69;100;92715.39;;;;
2019/12/22 09:27:16;;;;;;;3;2;;;;;;;4.69;100;92715.39;;;;
2019/12/22 09:28:17;;;;;;;3;2;;;;;;;4.69;100;92715.39;;;;
2019/12/22 09:29:19;;;;;;;3;2;;;;;;;4.69;100;92715.39;;;;
2019/12/22 09:30:20;;;;;;;2.1;1.9;;;;;;;4.85;100;92718.89;;;;
2019/12/22 09:31:21;;;;;;;2.1;1.9;;;;;;;4.85;100;92718.89;;;;
2019/12/22 09:32:22;;;;;;;2.1;1.9;;;;;;;4.85;100;92718.89;;;;
2019/12/22 09:33:23;;;;;;;2.1;1.9;;;;;;;4.85;100;92718.89;;;;
2019/12/22 09:34:24;;;;;;;2.1;1.9;;;;;;;4.85;100;92718.89;;;;
2019/12/22 09:35:25;;;;;;;2.1;1.9;;;;;;;4.85;100;92718.89;;;;
2019/12/22 09:36:27;;;;;;;2.1;1.9;;;;;;;4.85;100;92718.89;;;;
2019/12/22 09:37:28;;;;;;;2.1;1.9;;;;;;;4.85;100;92718.89;;;;
2019/12/22 09:38:29;;;;;;;2.1;1.9;;;;;;;4.85;100;92718.89;;;;
2019/12/22 09:39:30;;;;;;;2.1;1.9;;;;;;;4.85;100;92718.89;;;;
2019/12/22 09:40:31;;;;;;;3.8;1.9;;;;;;;5.06;100;92705.83;;;;
2019/12/22 09:41:32;;;;;;;3.8;1.9;;;;;;;5.06;100;92705.83;;;;
2019/12/22 09:42:33;;;;;;;3.8;1.9;;;;;;;5.06;100;92705.83;;;;
2019/12/22 09:43:35;;;;;;;3.8;1.9;;;;;;;5.06;100;92705.83;;;;
2019/12/22 09:44:36;;;;;;;3.8;1.9;;;;;;;5.06;100;92705.83;;;;
2019/12/22 09:45:37;;;;;;;3.8;1.9;;;;;;;5.06;100;92705.83;;;;
2019/12/22 09:46:38;;;;;;;3.8;1.9;;;;;;;5.06;100;92705.83;;;;
2019/12/22 09:47:39;;;;;;;3.8;1.9;;;;;;;5.06;100;92705.83;;;;
2019/12/22 09:48:40;;;;;;;3.8;1.9;;;;;;;5.06;100;92705.83;;;;
2019/12/22 09:49:42;;;;;;;3.8;1.9;;;;;;;5.06;100;92705.83;;;;
2019/12/22 09:50:43;;;;;;;3.8;1.9;;;;;;;5.06;100;92705.83;;;;
2019/12/22 09:51:44;;;;;;;3.75;2.3;;;;;;;5.47;100;92686.06;;;;
2019/12/22 09:52:45;;;;;;;3.75;2.3;;;;;;;5.47;100;92686.06;;;;
2019/12/22 09:53:46;;;;;;;3.75;2.3;;;;;;;5.47;100;92686.06;;;;
2019/12/22 09:54:47;;;;;;;3.75;2.3;;;;;;;5.47;100;92686.06;;;;
2019/12/22 09:55:48;;;;;;;3.75;2.3;;;;;;;5.47;100;92686.06;;;;
2019/12/22 09:56:49;;;;;;;3.75;2.3;;;;;;;5.47;100;92686.06;;;;
2019/12/22 09:57:50;;;;;;;3.75;2.3;;;;;;;5.47;100;92686.06;;;;
2019/12/22 09:58:51;;;;;;;3.75;2.3;;;;;;;5.47;100;92686.06;;;;
2019/12/22 09:59:53;;;;;;;3.75;2.3;;;;;;;5.47;100;92686.06;;;;
2019/12/22 10:01:25;;;;;;;3.75;2.3;;;;;;;5.47;100;92686.06;;;;
2019/12/22 10:02:26;;;;;;;5.7;1.95;;;;;;;5.87;100;92691.82;;;;
2019/12/22 10:03:27;;;;;;;5.7;1.95;;;;;;;5.87;100;92691.82;;;;
2019/12/22 10:04:28;;;;;;;5.7;1.95;;;;;;;5.87;100;92691.82;;;;
2019/12/22 10:05:29;;;;;;;5.7;1.95;;;;;;;5.87;100;92691.82;;;;
2019/12/22 10:06:46;;;;;;;5.7;1.95;;;;;;;5.87;100;92691.82;;;;
2019/12/22 10:07:47;;;;;;;5.7;1.95;;;;;;;5.87;100;92691.82;;;;
2019/12/22 10:08:48;;;;;;;5.7;1.95;;;;;;;5.87;100;92691.82;;;;
2019/12/22 10:09:49;;;;;;;5.7;1.95;;;;;;;5.87;100;92691.82;;;;
2019/12/22 10:10:50;;;;;;;5.7;1.95;;;;;;;5.87;100;92691.82;;;;
2019/12/22 10:11:51;;;;;;;5.7;1.95;;;;;;;5.87;100;92691.82;;;;
2019/12/22 10:12:52;;;;;;;2.4;2.2;;;;;;;6.23;100;92674.72;;;;
2019/12/22 10:13:53;;;;;;;2.4;2.2;;;;;;;6.23;100;92674.72;;;;
2019/12/22 10:14:55;;;;;;;2.4;2.2;;;;;;;6.23;100;92674.72;;;;
2019/12/22 10:15:56;;;;;;;2.4;2.2;;;;;;;6.23;100;92674.72;;;;
2019/12/22 10:16:57;;;;;;;2.4;2.2;;;;;;;6.23;100;92674.72;;;;
2019/12/22 10:17:58;;;;;;;2.4;2.2;;;;;;;6.23;100;92674.72;;;;
2019/12/22 10:18:59;;;;;;;2.4;2.2;;;;;;;6.23;100;92674.72;;;;
2019/12/22 10:20:15;;;;;;;2.4;2.2;;;;;;;6.23;100;92674.72;;;;
2019/12/22 10:21:17;;;;;;;2.4;2.2;;;;;;;6.23;100;92674.72;;;;
2019/12/22 10:22:18;;;;;;;2.4;2.2;;;;;;;6.23;100;92674.72;;;;
2019/12/22 10:23:19;;;;;;;2.4;1.9;;;;;;;6.45;100;92671.15;;;;
2019/12/22 10:24:21;;;;;;;2.4;1.9;;;;;;;6.45;100;92671.15;;;;
2019/12/22 10:25:22;;;;;;;2.4;1.9;;;;;;;6.45;100;92671.15;;;;
2019/12/22 10:26:23;;;;;;;2.4;1.9;;;;;;;6.45;100;92671.15;;;;
2019/12/22 10:27:24;;;;;;;2.4;1.9;;;;;;;6.45;100;92671.15;;;;
2019/12/22 10:28:25;;;;;;;2.4;1.9;;;;;;;6.45;100;92671.15;;;;
2019/12/22 10:29:26;;;;;;;2.4;1.9;;;;;;;6.45;100;92671.15;;;;
2019/12/22 10:30:27;;;;;;;2.4;1.9;;;;;;;6.45;100;92671.15;;;;
2019/12/22 10:31:29;;;;;;;2.4;1.9;;;;;;;6.45;100;92671.15;;;;
2019/12/22 10:32:30;;;;;;;2.4;1.9;;;;;;;6.45;100;92671.15;;;;
2019/12/22 10:33:31;;;;;;;2.7;1.8;;;;;;;6.71;100;92664.06;;;;
2019/12/22 10:34:32;;;;;;;2.7;1.8;;;;;;;6.71;100;92664.06;;;;
2019/12/22 10:35:33;;;;;;;2.7;1.8;;;;;;;6.71;100;92664.06;;;;
2019/12/22 10:36:34;;;;;;;2.7;1.8;;;;;;;6.71;100;92664.06;;;;
2019/12/22 10:37:35;;;;;;;2.7;1.8;;;;;;;6.71;100;92664.06;;;;
2019/12/22 10:38:36;;;;;;;2.7;1.8;;;;;;;6.71;100;92664.06;;;;
2019/12/22 10:39:37;;;;;;;2.7;1.8;;;;;;;6.71;100;92664.06;;;;
2019/12/22 10:40:38;;;;;;;2.7;1.8;;;;;;;6.71;100;92664.06;;;;
2019/12/22 10:41:40;;;;;;;2.7;1.8;;;;;;;6.71;100;92664.06;;;;
2019/12/22 10:42:41;;;;;;;2.7;1.8;;;;;;;6.71;100;92664.06;;;;
2019/12/22 10:43:42;;;;;;;2.7;1.8;;;;;;;6.71;100;92664.06;;;;
2019/12/22 10:44:43;;;;;;;3.2;1.55;;;;;;;7.18;100;92668.47;;;;
2019/12/22 10:45:44;;;;;;;3.2;1.55;;;;;;;7.18;100;92668.47;;;;
2019/12/22 10:46:46;;;;;;;3.2;1.55;;;;;;;7.18;100;92668.47;;;;
2019/12/22 10:47:47;;;;;;;3.2;1.55;;;;;;;7.18;100;92668.47;;;;
2019/12/22 10:48:48;;;;;;;3.2;1.55;;;;;;;7.18;100;92668.47;;;;
2019/12/22 10:49:50;;;;;;;3.2;1.55;;;;;;;7.18;100;92668.47;;;;
2019/12/22 10:50:51;;;;;;;3.2;1.55;;;;;;;7.18;100;92668.47;;;;
2019/12/22 10:51:52;;;;;;;3.2;1.55;;;;;;;7.18;100;92668.47;;;;
2019/12/22 10:52:53;;;;;;;3.2;1.55;;;;;;;7.18;100;92668.47;;;;
2019/12/22 10:53:54;;;;;;;3.2;1.55;;;;;;;7.18;100;92668.47;;;;
2019/12/22 10:54:56;;;;;;;1.95;1.55;;;;;;;7.87;100;92668.99;;;;
2019/12/22 10:55:57;;;;;;;1.95;1.55;;;;;;;7.87;100;92668.99;;;;
2019/12/22 10:56:58;;;;;;;1.95;1.55;;;;;;;7.87;100;92668.99;;;;
2019/12/22 10:57:59;;;;;;;1.95;1.55;;;;;;;7.87;100;92668.99;;;;
2019/12/22 10:59:00;;;;;;;1.95;1.55;;;;;;;7.87;100;92668.99;;;;
2019/12/22 11:00:01;;;;;;;1.95;1.55;;;;;;;7.87;100;92668.99;;;;
2019/12/22 11:01:02;;;;;;;1.95;1.55;;;;;;;7.87;100;92668.99;;;;
2019/12/22 11:02:03;;;;;;;1.95;1.55;;;;;;;7.87;100;92668.99;;;;
2019/12/22 11:03:05;;;;;;;1.95;1.55;;;;;;;7.87;100;92668.99;;;;
2019/12/22 11:04:06;;;;;;;1.95;1.55;;;;;;;7.87;100;92668.99;;;;
2019/12/22 11:05:07;;;;;;;1.95;1.55;;;;;;;7.87;100;92668.99;;;;
2019/12/22 11:06:09;;;;;;;2.35;1.8;;;;;;;8.53;100;92655.27;;;;
2019/12/22 11:07:10;;;;;;;2.35;1.8;;;;;;;8.53;100;92655.27;;;;
2019/12/22 11:08:11;;;;;;;2.35;1.8;;;;;;;8.53;100;92655.27;;;;
2019/12/22 11:09:12;;;;;;;2.35;1.8;;;;;;;8.53;100;92655.27;;;;
2019/12/22 11:10:13;;;;;;;2.35;1.8;;;;;;;8.53;100;92655.27;;;;
2019/12/22 11:11:14;;;;;;;2.35;1.8;;;;;;;8.53;100;92655.27;;;;
2019/12/22 11:12:16;;;;;;;2.35;1.8;;;;;;;8.53;100;92655.27;;;;
2019/12/22 11:13:17;;;;;;;2.35;1.8;;;;;;;8.53;100;92655.27;;;;
2019/12/22 11:14:18;;;;;;;2.35;1.8;;;;;;;8.53;100;92655.27;;;;
2019/12/22 11:15:20;;;;;;;2.35;1.8;;;;;;;8.53;100;92655.27;;;;
2019/12/22 11:16:21;;;;;;;2.35;1.9;;;;;;;8.91;100;92655.98;;;;
2019/12/22 11:17:22;;;;;;;2.35;1.9;;;;;;;8.91;100;92655.98;;;;
2019/12/22 11:18:23;;;;;;;2.35;1.9;;;;;;;8.91;100;92655.98;;;;
2019/12/22 11:19:24;;;;;;;2.35;1.9;;;;;;;8.91;100;92655.98;;;;
2019/12/22 11:20:25;;;;;;;2.35;1.9;;;;;;;8.91;100;92655.98;;;;
2019/12/22 11:21:26;;;;;;;2.35;1.9;;;;;;;8.91;100;92655.98;;;;
2019/12/22 11:22:28;;;;;;;2.35;1.9;;;;;;;8.91;100;92655.98;;;;
2019/12/22 11:23:29;;;;;;;2.35;1.9;;;;;;;8.91;100;92655.98;;;;
2019/12/22 11:24:30;;;;;;;2.35;1.9;;;;;;;8.91;100;92655.98;;;;
2019/12/22 11:25:31;;;;;;;2.35;1.9;;;;;;;8.91;100;92655.98;;;;
2019/12/22 11:26:32;;;;;;;3.1;1.5;;;;;;;8.82;100;92653.28;;;;
2019/12/22 11:27:33;;;;;;;3.1;1.5;;;;;;;8.82;100;92653.28;;;;
2019/12/22 11:28:34;;;;;;;3.1;1.5;;;;;;;8.82;100;92653.28;;;;
2019/12/22 11:29:35;;;;;;;3.1;1.5;;;;;;;8.82;100;92653.28;;;;
2019/12/22 11:30:37;;;;;;;3.1;1.5;;;;;;;8.82;100;92653.28;;;;
2019/12/22 11:31:38;;;;;;;3.1;1.5;;;;;;;8.82;100;92653.28;;;;
2019/12/22 11:32:39;;;;;;;3.1;1.5;;;;;;;8.82;100;92653.28;;;;
2019/12/22 11:33:40;;;;;;;3.1;1.5;;;;;;;8.82;100;92653.28;;;;
2019/12/22 11:34:41;;;;;;;3.1;1.5;;;;;;;8.82;100;92653.28;;;;
2019/12/22 11:35:42;;;;;;;3.1;1.5;;;;;;;8.82;100;92653.28;;;;
2019/12/22 11:36:43;;;;;;;3.1;1.5;;;;;;;8.82;100;92653.28;;;;
2019/12/22 11:37:44;;;;;;;2.2;1.7;;;;;;;8.66;100;92635.74;;;;
2019/12/22 11:38:45;;;;;;;2.2;1.7;;;;;;;8.66;100;92635.74;;;;
2019/12/22 11:39:46;;;;;;;2.2;1.7;;;;;;;8.66;100;92635.74;;;;
2019/12/22 11:40:48;;;;;;;2.2;1.7;;;;;;;8.66;100;92635.74;;;;
2019/12/22 11:41:49;;;;;;;2.2;1.7;;;;;;;8.66;100;92635.74;;;;
2019/12/22 11:42:50;;;;;;;2.2;1.7;;;;;;;8.66;100;92635.74;;;;
2019/12/22 11:43:51;;;;;;;2.2;1.7;;;;;;;8.66;100;92635.74;;;;
2019/12/22 11:44:52;;;;;;;2.2;1.7;;;;;;;8.66;100;92635.74;;;;
2019/12/22 11:45:53;;;;;;;2.2;1.7;;;;;;;8.66;100;92635.74;;;;
2019/12/22 11:46:54;;;;;;;2.2;1.7;;;;;;;8.66;100;92635.74;;;;
2019/12/22 11:47:55;;;;;;;1.9;1.5;;;;;;;8.37;100;92628.3;;;;
2019/12/22 11:48:56;;;;;;;1.9;1.5;;;;;;;8.37;100;92628.3;;;;
2019/12/22 11:49:57;;;;;;;1.9;1.5;;;;;;;8.37;100;92628.3;;;;
2019/12/22 11:50:58;;;;;;;1.9;1.5;;;;;;;8.37;100;92628.3;;;;
2019/12/22 11:52:00;;;;;;;1.9;1.5;;;;;;;8.37;100;92628.3;;;;
2019/12/22 11:53:01;;;;;;;1.9;1.5;;;;;;;8.37;100;92628.3;;;;
2019/12/22 11:54:02;;;;;;;1.9;1.5;;;;;;;8.37;100;92628.3;;;;
2019/12/22 11:55:03;;;;;;;1.9;1.5;;;;;;;8.37;100;92628.3;;;;
2019/12/22 11:56:04;;;;;;;1.9;1.5;;;;;;;8.37;100;92628.3;;;;
2019/12/22 11:57:05;;;;;;;1.9;1.5;;;;;;;8.37;100;92628.3;;;;
2019/12/22 11:58:06;;;;;;;1.9;1.5;;;;;;;8.37;100;92628.3;;;;
2019/12/22 11:59:07;;;;;;;2.6;1.8;;;;;;;8.3;100;92632.69;;;;
2019/12/22 12:00:09;;;;;;;2.6;1.8;;;;;;;8.3;100;92632.69;;;;
2019/12/22 12:01:10;;;;;;;2.6;1.8;;;;;;;8.3;100;92632.69;;;;
2019/12/22 12:02:11;;;;;;;2.6;1.8;;;;;;;8.3;100;92632.69;;;;
2019/12/22 12:03:12;;;;;;;2.6;1.8;;;;;;;8.3;100;92632.69;;;;
2019/12/22 12:04:13;;;;;;;2.6;1.8;;;;;;;8.3;100;92632.69;;;;
2019/12/22 12:05:14;;;;;;;2.6;1.8;;;;;;;8.3;100;92632.69;;;;
2019/12/22 12:06:15;;;;;;;2.6;1.8;;;;;;;8.3;100;92632.69;;;;
2019/12/22 12:07:17;;;;;;;2.6;1.8;;;;;;;8.3;100;92632.69;;;;
2019/12/22 12:08:18;;;;;;;2.6;1.8;;;;;;;8.3;100;92632.69;;;;
2019/12/22 12:09:19;;;;;;;2.3;1.7;;;;;;;8.32;100;92643.96;;;;
2019/12/22 12:10:20;;;;;;;2.3;1.7;;;;;;;8.32;100;92643.96;;;;
2019/12/22 12:11:21;;;;;;;2.3;1.7;;;;;;;8.32;100;92643.96;;;;
2019/12/22 12:12:22;;;;;;;2.3;1.7;;;;;;;8.32;100;92643.96;;;;
2019/12/22 12:13:23;;;;;;;2.3;1.7;;;;;;;8.32;100;92643.96;;;;
2019/12/22 12:14:24;;;;;;;2.3;1.7;;;;;;;8.32;100;92643.96;;;;
2019/12/22 12:15:25;;;;;;;2.3;1.7;;;;;;;8.32;100;92643.96;;;;
2019/12/22 12:16:27;;;;;;;2.3;1.7;;;;;;;8.32;100;92643.96;;;;
2019/12/22 12:17:28;;;;;;;2.3;1.7;;;;;;;8.32;100;92643.96;;;;
2019/12/22 12:18:29;;;;;;;2.3;1.7;;;;;;;8.32;100;92643.96;;;;
2019/12/22 12:19:30;;;;;;;2.35;2;;;;;;;8.42;100;92638.86;;;;
2019/12/22 12:20:31;;;;;;;2.35;2;;;;;;;8.42;100;92638.86;;;;
2019/12/22 12:21:32;;;;;;;2.35;2;;;;;;;8.42;100;92638.86;;;;
2019/12/22 12:22:33;;;;;;;2.35;2;;;;;;;8.42;100;92638.86;;;;
2019/12/22 12:23:34;;;;;;;2.35;2;;;;;;;8.42;100;92638.86;;;;
2019/12/22 12:24:36;;;;;;;2.35;2;;;;;;;8.42;100;92638.86;;;;
2019/12/22 12:25:37;;;;;;;2.35;2;;;;;;;8.42;100;92638.86;;;;
2019/12/22 12:26:38;;;;;;;2.35;2;;;;;;;8.42;100;92638.86;;;;
2019/12/22 12:27:39;;;;;;;2.35;2;;;;;;;8.42;100;92638.86;;;;
2019/12/22 12:28:40;;;;;;;2.35;2;;;;;;;8.42;100;92638.86;;;;
2019/12/22 12:29:41;;;;;;;2.35;2;;;;;;;8.42;100;92638.86;;;;
2019/12/22 12:30:42;;;;;;;4;2.55;;;;;;;8.4;100;92659.84;;;;
2019/12/22 12:31:43;;;;;;;4;2.55;;;;;;;8.4;100;92659.84;;;;
2019/12/22 12:32:45;;;;;;;4;2.55;;;;;;;8.4;100;92659.84;;;;
2019/12/22 12:33:46;;;;;;;4;2.55;;;;;;;8.4;100;92659.84;;;;
2019/12/22 12:34:47;;;;;;;4;2.55;;;;;;;8.4;100;92659.84;;;;
2019/12/22 12:35:48;;;;;;;4;2.55;;;;;;;8.4;100;92659.84;;;;
2019/12/22 12:36:49;;;;;;;4;2.55;;;;;;;8.4;100;92659.84;;;;
2019/12/22 12:37:50;;;;;;;4;2.55;;;;;;;8.4;100;92659.84;;;;
2019/12/22 12:38:51;;;;;;;4;2.55;;;;;;;8.4;100;92659.84;;;;
2019/12/22 12:39:52;;;;;;;4;2.55;;;;;;;8.4;100;92659.84;;;;
2019/12/22 12:40:53;;;;;;;4;2.55;;;;;;;8.4;100;92659.84;;;;
2019/12/22 12:41:54;;;;;;;4;2.55;;;;;;;8.4;100;92659.84;;;;
2019/12/22 12:42:56;;;;;;;4;2.55;;;;;;;8.4;100;92659.84;;;;
2019/12/22 12:43:57;;;;;;;4;2.55;;;;;;;8.4;100;92659.84;;;;
2019/12/22 12:44:58;;;;;;;4;2.55;;;;;;;8.4;100;92659.84;;;;
2019/12/22 12:45:59;;;;;;;4;2.55;;;;;;;8.4;100;92659.84;;;;
2019/12/22 12:47:00;;;;;;;4;2.55;;;;;;;8.4;100;92659.84;;;;
2019/12/22 12:48:01;;;;;;;4;2.55;;;;;;;8.4;100;92659.84;;;;
2019/12/22 12:49:02;;;;;;;4;2.55;;;;;;;8.4;100;92659.84;;;;
2019/12/22 12:50:03;;;;;;;4;2.55;;;;;;;8.4;100;92659.84;;;;
2019/12/22 12:51:04;;;;;;;4;2.55;;;;;;;8.4;100;92659.84;;;;
2019/12/22 12:52:06;;;;;;;2.2;1.7;;;;;;;8.56;100;92693.3;;;;
2019/12/22 12:53:07;;;;;;;2.2;1.7;;;;;;;8.56;100;92693.3;;;;
2019/12/22 12:54:08;;;;;;;2.2;1.7;;;;;;;8.56;100;92693.3;;;;
2019/12/22 12:55:09;;;;;;;2.2;1.7;;;;;;;8.56;100;92693.3;;;;
2019/12/22 12:56:10;;;;;;;2.2;1.7;;;;;;;8.56;100;92693.3;;;;
2019/12/22 12:57:11;;;;;;;2.2;1.7;;;;;;;8.56;100;92693.3;;;;
2019/12/22 12:58:12;;;;;;;2.2;1.7;;;;;;;8.56;100;92693.3;;;;
2019/12/22 12:59:14;;;;;;;2.2;1.7;;;;;;;8.56;100;92693.3;;;;
2019/12/22 13:00:15;;;;;;;2.2;1.7;;;;;;;8.56;100;92693.3;;;;
2019/12/22 13:01:16;;;;;;;2.2;1.7;;;;;;;8.56;100;92693.3;;;;
2019/12/22 13:02:17;;;;;;;1.75;1.35;;;;;;;8.34;100;92681.17;;;;
2019/12/22 13:03:18;;;;;;;1.75;1.35;;;;;;;8.34;100;92681.17;;;;
2019/12/22 13:04:19;;;;;;;1.75;1.35;;;;;;;8.34;100;92681.17;;;;
2019/12/22 13:05:20;;;;;;;1.75;1.35;;;;;;;8.34;100;92681.17;;;;
2019/12/22 13:06:21;;;;;;;1.75;1.35;;;;;;;8.34;100;92681.17;;;;
2019/12/22 13:07:22;;;;;;;1.75;1.35;;;;;;;8.34;100;92681.17;;;;
2019/12/22 13:08:23;;;;;;;1.75;1.35;;;;;;;8.34;100;92681.17;;;;
2019/12/22 13:09:25;;;;;;;1.75;1.35;;;;;;;8.34;100;92681.17;;;;
2019/12/22 13:10:26;;;;;;;1.75;1.35;;;;;;;8.34;100;92681.17;;;;
2019/12/22 13:11:27;;;;;;;1.75;1.35;;;;;;;8.34;100;92681.17;;;;
2019/12/22 13:12:28;;;;;;;1.75;1.35;;;;;;;8.34;100;92681.17;;;;
2019/12/22 13:13:29;;;;;;;1.7;1.55;;;;;;;8.16;100;92661.84;;;;
2019/12/22 13:14:30;;;;;;;1.7;1.55;;;;;;;8.16;100;92661.84;;;;
2019/12/22 13:15:31;;;;;;;1.7;1.55;;;;;;;8.16;100;92661.84;;;;
2019/12/22 13:16:32;;;;;;;1.7;1.55;;;;;;;8.16;100;92661.84;;;;
2019/12/22 13:17:33;;;;;;;1.7;1.55;;;;;;;8.16;100;92661.84;;;;
2019/12/22 13:18:35;;;;;;;1.7;1.55;;;;;;;8.16;100;92661.84;;;;
2019/12/22 13:19:36;;;;;;;1.7;1.55;;;;;;;8.16;100;92661.84;;;;
2019/12/22 13:20:37;;;;;;;1.7;1.55;;;;;;;8.16;100;92661.84;;;;
2019/12/22 13:21:38;;;;;;;1.7;1.55;;;;;;;8.16;100;92661.84;;;;
2019/12/22 13:22:39;;;;;;;1.7;1.55;;;;;;;8.16;100;92661.84;;;;
2019/12/22 13:23:40;;;;;;;2.2;2;;;;;;;8.46;100;92665.97;;;;
2019/12/22 13:24:41;;;;;;;2.2;2;;;;;;;8.46;100;92665.97;;;;
2019/12/22 13:25:43;;;;;;;2.2;2;;;;;;;8.46;100;92665.97;;;;
2019/12/22 13:26:44;;;;;;;2.2;2;;;;;;;8.46;100;92665.97;;;;
2019/12/22 13:27:45;;;;;;;2.2;2;;;;;;;8.46;100;92665.97;;;;
2019/12/22 13:28:46;;;;;;;2.2;2;;;;;;;8.46;100;92665.97;;;;
2019/12/22 13:29:47;;;;;;;2.2;2;;;;;;;8.46;100;92665.97;;;;
2019/12/22 13:30:48;;;;;;;2.2;2;;;;;;;8.46;100;92665.97;;;;
2019/12/22 13:31:49;;;;;;;2.2;2;;;;;;;8.46;100;92665.97;;;;
2019/12/22 13:32:50;;;;;;;2.2;2;;;;;;;8.46;100;92665.97;;;;
2019/12/22 13:33:51;;;;;;;2.45;1.85;;;;;;;8.69;100;92679;;;;
2019/12/22 13:34:53;;;;;;;2.45;1.85;;;;;;;8.69;100;92679;;;;
2019/12/22 13:35:54;;;;;;;2.45;1.85;;;;;;;8.69;100;92679;;;;
2019/12/22 13:36:55;;;;;;;2.45;1.85;;;;;;;8.69;100;92679;;;;
2019/12/22 13:37:56;;;;;;;2.45;1.85;;;;;;;8.69;100;92679;;;;
2019/12/22 13:38:57;;;;;;;2.45;1.85;;;;;;;8.69;100;92679;;;;
2019/12/22 13:39:58;;;;;;;2.45;1.85;;;;;;;8.69;100;92679;;;;
2019/12/22 13:40:59;;;;;;;2.45;1.85;;;;;;;8.69;100;92679;;;;
2019/12/22 13:42:00;;;;;;;2.45;1.85;;;;;;;8.69;100;92679;;;;
2019/12/22 13:43:02;;;;;;;2.45;1.85;;;;;;;8.69;100;92679;;;;
2019/12/22 13:44:03;;;;;;;2.45;1.85;;;;;;;8.69;100;92679;;;;
2019/12/22 13:45:04;;;;;;;1.7;1.4;;;;;;;8.68;100;92687.77;;;;
2019/12/22 13:46:05;;;;;;;1.7;1.4;;;;;;;8.68;100;92687.77;;;;
2019/12/22 13:47:06;;;;;;;1.7;1.4;;;;;;;8.68;100;92687.77;;;;
2019/12/22 13:48:07;;;;;;;1.7;1.4;;;;;;;8.68;100;92687.77;;;;
2019/12/22 13:49:08;;;;;;;1.7;1.4;;;;;;;8.68;100;92687.77;;;;
2019/12/22 13:50:09;;;;;;;1.7;1.4;;;;;;;8.68;100;92687.77;;;;
2019/12/22 13:51:10;;;;;;;1.7;1.4;;;;;;;8.68;100;92687.77;;;;
2019/12/22 13:52:11;;;;;;;1.7;1.4;;;;;;;8.68;100;92687.77;;;;
2019/12/22 13:53:13;;;;;;;1.7;1.4;;;;;;;8.68;100;92687.77;;;;
2019/12/22 13:54:14;;;;;;;1.7;1.4;;;;;;;8.68;100;92687.77;;;;
2019/12/22 13:55:15;;;;;;;1.55;1.3;;;;;;;8.45;100;92706.84;;;;
2019/12/22 13:56:16;;;;;;;1.55;1.3;;;;;;;8.45;100;92706.84;;;;
2019/12/22 13:57:17;;;;;;;1.55;1.3;;;;;;;8.45;100;92706.84;;;;
2019/12/22 13:58:18;;;;;;;1.55;1.3;;;;;;;8.45;100;92706.84;;;;
2019/12/22 13:59:19;;;;;;;1.55;1.3;;;;;;;8.45;100;92706.84;;;;
2019/12/22 14:00:21;;;;;;;1.55;1.3;;;;;;;8.45;100;92706.84;;;;
2019/12/22 14:01:22;;;;;;;1.55;1.3;;;;;;;8.45;100;92706.84;;;;
2019/12/22 14:02:23;;;;;;;1.55;1.3;;;;;;;8.45;100;92706.84;;;;
2019/12/22 14:03:24;;;;;;;1.55;1.3;;;;;;;8.45;100;92706.84;;;;
2019/12/22 14:04:25;;;;;;;1.55;1.3;;;;;;;8.45;100;92706.84;;;;
2019/12/22 14:05:27;;;;;;;1.55;1.3;;;;;;;8.45;100;92706.84;;;;
2019/12/22 14:06:28;;;;;;;1.9;1.2;;;;;;;8.43;100;92728.8;;;;
2019/12/22 14:07:29;;;;;;;1.9;1.2;;;;;;;8.43;100;92728.8;;;;
2019/12/22 14:08:30;;;;;;;1.9;1.2;;;;;;;8.43;100;92728.8;;;;
2019/12/22 14:09:31;;;;;;;1.9;1.2;;;;;;;8.43;100;92728.8;;;;
2019/12/22 14:10:32;;;;;;;1.9;1.2;;;;;;;8.43;100;92728.8;;;;
2019/12/22 14:11:33;;;;;;;1.9;1.2;;;;;;;8.43;100;92728.8;;;;
2019/12/22 14:12:34;;;;;;;1.9;1.2;;;;;;;8.43;100;92728.8;;;;
2019/12/22 14:13:36;;;;;;;1.9;1.2;;;;;;;8.43;100;92728.8;;;;
2019/12/22 14:14:37;;;;;;;1.9;1.2;;;;;;;8.43;100;92728.8;;;;
2019/12/22 14:15:38;;;;;;;1.9;1.2;;;;;;;8.43;100;92728.8;;;;
2019/12/22 14:16:39;;;;;;;1.5;1;;;;;;;8.35;100;92724.03;;;;
2019/12/22 14:17:40;;;;;;;1.5;1;;;;;;;8.35;100;92724.03;;;;
2019/12/22 14:18:41;;;;;;;1.5;1;;;;;;;8.35;100;92724.03;;;;
2019/12/22 14:19:42;;;;;;;1.5;1;;;;;;;8.35;100;92724.03;;;;
2019/12/22 14:20:43;;;;;;;1.5;1;;;;;;;8.35;100;92724.03;;;;
2019/12/22 14:21:44;;;;;;;1.5;1;;;;;;;8.35;100;92724.03;;;;
2019/12/22 14:22:45;;;;;;;1.5;1;;;;;;;8.35;100;92724.03;;;;
2019/12/22 14:23:46;;;;;;;1.5;1;;;;;;;8.35;100;92724.03;;;;
2019/12/22 14:24:48;;;;;;;1.5;1;;;;;;;8.35;100;92724.03;;;;
2019/12/22 14:25:49;;;;;;;1.5;1;;;;;;;8.35;100;92724.03;;;;
2019/12/22 14:26:50;;;;;;;1.2;0.9;;;;;;;8.35;100;92752.26;;;;
2019/12/22 14:27:51;;;;;;;1.2;0.9;;;;;;;8.35;100;92752.26;;;;
2019/12/22 14:28:52;;;;;;;1.2;0.9;;;;;;;8.35;100;92752.26;;;;
2019/12/22 14:29:53;;;;;;;1.2;0.9;;;;;;;8.35;100;92752.26;;;;
2019/12/22 14:30:54;;;;;;;1.2;0.9;;;;;;;8.35;100;92752.26;;;;
2019/12/22 14:31:55;;;;;;;1.2;0.9;;;;;;;8.35;100;92752.26;;;;
2019/12/22 14:32:57;;;;;;;1.2;0.9;;;;;;;8.35;100;92752.26;;;;
2019/12/22 14:33:58;;;;;;;1.2;0.9;;;;;;;8.35;100;92752.26;;;;
2019/12/22 14:34:59;;;;;;;1.2;0.9;;;;;;;8.35;100;92752.26;;;;
2019/12/22 14:36:00;;;;;;;1.2;0.9;;;;;;;8.35;100;92752.26;;;;
2019/12/22 14:37:01;;;;;;;1.2;0.9;;;;;;;8.35;100;92752.26;;;;
2019/12/22 14:38:02;;;;;;;0.8;0.8;;;;;;;8.2;100;92772.55;;;;
2019/12/22 14:39:04;;;;;;;0.8;0.8;;;;;;;8.2;100;92772.55;;;;
2019/12/22 14:40:05;;;;;;;0.8;0.8;;;;;;;8.2;100;92772.55;;;;
2019/12/22 14:41:06;;;;;;;0.8;0.8;;;;;;;8.2;100;92772.55;;;;
2019/12/22 14:42:08;;;;;;;0.8;0.8;;;;;;;8.2;100;92772.55;;;;
2019/12/22 14:43:09;;;;;;;0.8;0.8;;;;;;;8.2;100;92772.55;;;;
2019/12/22 14:44:10;;;;;;;0.8;0.8;;;;;;;8.2;100;92772.55;;;;
2019/12/22 14:45:11;;;;;;;0.8;0.8;;;;;;;8.2;100;92772.55;;;;
2019/12/22 14:46:12;;;;;;;0.8;0.8;;;;;;;8.2;100;92772.55;;;;
2019/12/22 14:47:13;;;;;;;0.8;0.8;;;;;;;8.2;100;92772.55;;;;
2019/12/22 14:48:14;;;;;;;1;1;;;;;;;8.1;99.54883;92780.68;;;;
2019/12/22 14:49:15;;;;;;;1;1;;;;;;;8.1;99.54883;92780.68;;;;
2019/12/22 14:50:16;;;;;;;1;1;;;;;;;8.1;99.54883;92780.68;;;;
2019/12/22 14:51:18;;;;;;;1;1;;;;;;;8.1;99.54883;92780.68;;;;
2019/12/22 14:52:19;;;;;;;1;1;;;;;;;8.1;99.54883;92780.68;;;;
2019/12/22 14:53:20;;;;;;;1;1;;;;;;;8.1;99.54883;92780.68;;;;
2019/12/22 14:54:21;;;;;;;1;1;;;;;;;8.1;99.54883;92780.68;;;;
2019/12/22 14:55:22;;;;;;;1;1;;;;;;;8.1;99.54883;92780.68;;;;
2019/12/22 14:56:23;;;;;;;1;1;;;;;;;8.1;99.54883;92780.68;;;;
2019/12/22 14:57:24;;;;;;;1;1;;;;;;;8.1;99.54883;92780.68;;;;
2019/12/22 14:58:25;;;;;;;1;1;;;;;;;8.1;99.54883;92780.68;;;;
2019/12/22 14:59:26;;;;;;;1.85;0.9;;;;;;;7.97;99.76172;92793.03;;;;
2019/12/22 15:00:28;;;;;;;1.85;0.9;;;;;;;7.97;99.76172;92793.03;;;;
2019/12/22 15:01:29;;;;;;;1.85;0.9;;;;;;;7.97;99.76172;92793.03;;;;
2019/12/22 15:02:30;;;;;;;1.85;0.9;;;;;;;7.97;99.76172;92793.03;;;;
2019/12/22 15:03:31;;;;;;;1.85;0.9;;;;;;;7.97;99.76172;92793.03;;;;
2019/12/22 15:04:32;;;;;;;1.85;0.9;;;;;;;7.97;99.76172;92793.03;;;;
2019/12/22 15:05:33;;;;;;;1.85;0.9;;;;;;;7.97;99.76172;92793.03;;;;
2019/12/22 15:06:34;;;;;;;1.85;0.9;;;;;;;7.97;99.76172;92793.03;;;;
2019/12/22 15:07:35;;;;;;;1.85;0.9;;;;;;;7.97;99.76172;92793.03;;;;
2019/12/22 15:08:36;;;;;;;1.85;0.9;;;;;;;7.97;99.76172;92793.03;;;;
2019/12/22 15:09:38;;;;;;;0.8;0.8;;;;;;;7.89;99.66016;92801.14;;;;
2019/12/22 15:10:39;;;;;;;0.8;0.8;;;;;;;7.89;99.66016;92801.14;;;;
2019/12/22 15:11:40;;;;;;;0.8;0.8;;;;;;;7.89;99.66016;92801.14;;;;
2019/12/22 15:12:41;;;;;;;0.8;0.8;;;;;;;7.89;99.66016;92801.14;;;;
2019/12/22 15:13:42;;;;;;;0.8;0.8;;;;;;;7.89;99.66016;92801.14;;;;
2019/12/22 15:14:43;;;;;;;0.8;0.8;;;;;;;7.89;99.66016;92801.14;;;;
2019/12/22 15:15:44;;;;;;;0.8;0.8;;;;;;;7.89;99.66016;92801.14;;;;
2019/12/22 15:16:45;;;;;;;0.8;0.8;;;;;;;7.89;99.66016;92801.14;;;;
2019/12/22 15:17:46;;;;;;;0.8;0.8;;;;;;;7.89;99.66016;92801.14;;;;
2019/12/22 15:18:48;;;;;;;0.8;0.8;;;;;;;7.89;99.66016;92801.14;;;;
2019/12/22 15:19:49;;;;;;;1;1;;;;;;;7.77;99.70605;92830.22;;;;
2019/12/22 15:20:50;;;;;;;1;1;;;;;;;7.77;99.70605;92830.22;;;;
2019/12/22 15:21:51;;;;;;;1;1;;;;;;;7.77;99.70605;92830.22;;;;
2019/12/22 15:22:52;;;;;;;1;1;;;;;;;7.77;99.70605;92830.22;;;;
2019/12/22 15:23:53;;;;;;;1;1;;;;;;;7.77;99.70605;92830.22;;;;
2019/12/22 15:24:55;;;;;;;1;1;;;;;;;7.77;99.70605;92830.22;;;;
2019/12/22 15:25:56;;;;;;;1;1;;;;;;;7.77;99.70605;92830.22;;;;
2019/12/22 15:26:57;;;;;;;1;1;;;;;;;7.77;99.70605;92830.22;;;;
2019/12/22 15:27:58;;;;;;;1;1;;;;;;;7.77;99.70605;92830.22;;;;
2019/12/22 15:28:59;;;;;;;1;1;;;;;;;7.77;99.70605;92830.22;;;;
2019/12/22 15:30:00;;;;;;;1;1;;;;;;;7.77;99.70605;92830.22;;;;
2019/12/22 15:31:02;;;;;;;0.85;0.85;;;;;;;7.75;99.53223;92839.5;;;;
2019/12/22 15:32:03;;;;;;;0.85;0.85;;;;;;;7.75;99.53223;92839.5;;;;
2019/12/22 15:33:04;;;;;;;0.85;0.85;;;;;;;7.75;99.53223;92839.5;;;;
2019/12/22 15:34:05;;;;;;;0.85;0.85;;;;;;;7.75;99.53223;92839.5;;;;
2019/12/22 15:35:06;;;;;;;0.85;0.85;;;;;;;7.75;99.53223;92839.5;;;;
2019/12/22 15:36:07;;;;;;;0.85;0.85;;;;;;;7.75;99.53223;92839.5;;;;
2019/12/22 15:37:08;;;;;;;0.85;0.85;;;;;;;7.75;99.53223;92839.5;;;;
2019/12/22 15:38:09;;;;;;;0.85;0.85;;;;;;;7.75;99.53223;92839.5;;;;
2019/12/22 15:39:11;;;;;;;0.85;0.85;;;;;;;7.75;99.53223;92839.5;;;;
2019/12/22 15:40:12;;;;;;;0.85;0.85;;;;;;;7.75;99.53223;92839.5;;;;
2019/12/22 15:41:13;;;;;;;0.8;0.8;;;;;;;7.51;99.51855;92872.14;;;;
2019/12/22 15:42:14;;;;;;;0.8;0.8;;;;;;;7.51;99.51855;92872.14;;;;
2019/12/22 15:43:15;;;;;;;0.8;0.8;;;;;;;7.51;99.51855;92872.14;;;;
2019/12/22 15:44:16;;;;;;;0.8;0.8;;;;;;;7.51;99.51855;92872.14;;;;
2019/12/22 15:45:17;;;;;;;0.8;0.8;;;;;;;7.51;99.51855;92872.14;;;;
2019/12/22 15:46:18;;;;;;;0.8;0.8;;;;;;;7.51;99.51855;92872.14;;;;
2019/12/22 15:47:20;;;;;;;0.8;0.8;;;;;;;7.51;99.51855;92872.14;;;;